createdAt,value
2023-03-07T00:01:33.450Z,7.40
2023-03-07T00:04:00.752Z,8.50
2023-03-07T00:06:28.114Z,8.20
2023-03-07T00:08:56.095Z,9.15
2023-03-07T00:11:23.274Z,8.00
2023-03-07T00:13:51.770Z,7.88
2023-03-07T00:16:19.288Z,8.48
2023-03-07T00:18:46.560Z,7.72
2023-03-07T00:21:14.137Z,7.55
2023-03-07T00:23:41.855Z,7.15
2023-03-07T00:26:09.377Z,7.47
2023-03-07T00:28:36.594Z,7.60
2023-03-07T00:31:05.641Z,7.82
2023-03-07T00:33:32.897Z,7.78
2023-03-07T00:36:00.679Z,8.27
2023-03-07T00:38:28.264Z,7.53
2023-03-07T00:40:59.203Z,7.40
2023-03-07T00:43:26.452Z,8.60
2023-03-07T00:45:53.681Z,7.90
2023-03-07T00:48:23.385Z,7.63
2023-03-07T00:50:50.693Z,8.77
2023-03-07T00:53:17.975Z,8.60
2023-03-07T00:55:53.775Z,8.07
2023-03-07T00:58:20.962Z,7.68
2023-03-07T01:00:48.206Z,7.57
2023-03-07T01:03:15.425Z,7.97
2023-03-07T01:05:43.912Z,8.43
2023-03-07T01:08:11.103Z,7.80
2023-03-07T01:10:38.350Z,7.47
2023-03-07T01:13:05.531Z,7.10
2023-03-07T01:15:32.793Z,6.82
2023-03-07T01:18:00.024Z,7.32
2023-03-07T01:20:27.337Z,6.25
2023-03-07T01:22:55.843Z,6.38
2023-03-07T01:25:23.061Z,6.40
2023-03-07T01:27:50.798Z,6.60
2023-03-07T01:30:18.108Z,6.47
2023-03-07T01:32:45.346Z,7.05
2023-03-07T01:35:12.573Z,6.60
2023-03-07T01:37:39.743Z,7.13
2023-03-07T01:40:09.857Z,7.03
2023-03-07T01:45:05.740Z,5.57
2023-03-07T01:47:32.991Z,6.65
2023-03-07T01:50:00.553Z,6.85
2023-03-07T01:52:29.067Z,6.10
2023-03-07T01:54:56.950Z,5.97
2023-03-07T01:57:25.855Z,5.90
2023-03-07T01:59:54.861Z,6.05
2023-03-07T02:02:22.700Z,5.43
2023-03-07T02:04:50.417Z,5.20
2023-03-07T02:07:17.742Z,4.88
2023-03-07T02:09:44.950Z,5.38
2023-03-07T02:12:12.204Z,5.32
2023-03-07T02:14:40.704Z,5.53
2023-03-07T02:17:07.895Z,4.53
2023-03-07T02:19:38.549Z,4.95
2023-03-07T02:22:08.803Z,4.80
2023-03-07T02:24:37.856Z,4.32
2023-03-07T02:27:06.823Z,4.63
2023-03-07T02:29:34.025Z,4.38
2023-03-07T02:32:01.237Z,4.50
2023-03-07T02:34:28.863Z,4.53
2023-03-07T02:36:58.214Z,4.05
2023-03-07T02:39:25.848Z,3.20
2023-03-07T02:41:55.000Z,3.72
2023-03-07T02:44:23.540Z,3.97
2023-03-07T02:46:50.729Z,4.15
2023-03-07T02:49:17.969Z,3.67
2023-03-07T02:51:45.143Z,3.20
2023-03-07T02:54:12.348Z,3.80
2023-03-07T02:56:39.544Z,3.58
2023-03-07T02:59:06.749Z,3.38
2023-03-07T03:01:35.285Z,3.30
2023-03-07T03:04:02.507Z,3.00
2023-03-07T03:06:29.713Z,3.40
2023-03-07T03:08:56.914Z,3.25
2023-03-07T03:11:24.094Z,2.67
2023-03-07T03:13:51.288Z,3.03
2023-03-07T03:16:18.547Z,2.88
2023-03-07T03:18:47.050Z,2.90
2023-03-07T03:21:14.874Z,2.50
2023-03-07T03:23:42.064Z,2.40
2023-03-07T03:26:11.412Z,2.58
2023-03-07T03:28:38.670Z,2.22
2023-03-07T03:31:06.614Z,2.53
2023-03-07T03:33:33.883Z,2.60
2023-03-07T03:36:06.299Z,2.70
2023-03-07T03:38:33.725Z,2.30
2023-03-07T03:41:03.701Z,2.40
2023-03-07T03:43:30.897Z,2.45
2023-03-07T03:45:58.369Z,2.33
2023-03-07T03:48:25.794Z,2.72
2023-03-07T03:51:00.322Z,2.63
2023-03-07T03:53:28.897Z,2.20
2023-03-07T03:56:01.349Z,2.08
2023-03-07T03:58:28.557Z,2.00
2023-03-07T04:00:55.989Z,2.30
2023-03-07T04:03:23.183Z,2.47
2023-03-07T04:05:50.398Z,2.33
2023-03-07T04:08:17.626Z,2.30
2023-03-07T04:10:46.170Z,2.22
2023-03-07T04:13:13.359Z,2.30
2023-03-07T04:15:40.595Z,2.00
2023-03-07T04:18:07.805Z,2.30
2023-03-07T04:20:34.993Z,2.03
2023-03-07T04:23:02.185Z,3.10
2023-03-07T04:25:29.400Z,3.10
2023-03-07T04:27:58.179Z,2.88
2023-03-07T04:30:26.309Z,2.53
2023-03-07T04:32:53.502Z,2.28
2023-03-07T04:35:20.700Z,2.60
2023-03-07T04:37:47.887Z,2.13
2023-03-07T04:40:15.125Z,2.30
2023-03-07T04:42:42.340Z,2.33
2023-03-07T04:45:11.559Z,2.20
2023-03-07T04:47:38.770Z,2.10
2023-03-07T04:50:06.598Z,2.10
2023-03-07T04:52:33.859Z,1.95
2023-03-07T04:55:01.064Z,2.10
2023-03-07T04:57:28.247Z,2.13
2023-03-07T04:59:55.440Z,2.20
2023-03-07T05:02:23.988Z,2.15
2023-03-07T05:04:51.238Z,2.20
2023-03-07T05:07:18.450Z,2.13
2023-03-07T05:09:45.806Z,2.20
2023-03-07T05:12:13.075Z,2.13
2023-03-07T05:14:40.312Z,2.20
2023-03-07T05:17:07.526Z,2.42
2023-03-07T05:19:36.044Z,2.20
2023-03-07T05:22:03.546Z,2.20
2023-03-07T05:24:30.760Z,2.13
2023-03-07T05:26:57.955Z,2.10
2023-03-07T05:29:25.155Z,2.00
2023-03-07T05:31:52.333Z,2.00
2023-03-07T05:34:19.518Z,2.25
2023-03-07T05:36:48.715Z,1.90
2023-03-07T05:39:16.352Z,2.13
2023-03-07T05:41:43.549Z,1.95
2023-03-07T05:44:10.763Z,2.00
2023-03-07T05:46:38.044Z,1.90
2023-03-07T05:49:05.365Z,2.17
2023-03-07T05:51:32.558Z,2.17
2023-03-07T05:54:01.214Z,1.90
2023-03-07T05:56:28.466Z,2.05
2023-03-07T05:58:55.749Z,2.00
2023-03-07T06:01:22.930Z,1.90
2023-03-07T06:03:50.223Z,1.70
2023-03-07T06:06:17.454Z,1.88
2023-03-07T06:08:44.648Z,1.92
2023-03-07T06:11:13.162Z,1.70
2023-03-07T06:13:40.402Z,1.45
2023-03-07T06:16:07.733Z,1.77
2023-03-07T06:18:34.932Z,1.50
2023-03-07T06:21:02.536Z,1.50
2023-03-07T06:23:30.276Z,1.40
2023-03-07T06:25:57.498Z,1.73
2023-03-07T06:28:25.991Z,1.52
2023-03-07T06:30:53.233Z,1.50
2023-03-07T06:33:20.518Z,1.65
2023-03-07T06:35:47.957Z,2.20
2023-03-07T06:38:15.586Z,2.00
2023-03-07T06:40:42.791Z,2.03
2023-03-07T06:43:10.946Z,2.00
2023-03-07T06:45:39.492Z,2.10
2023-03-07T06:48:06.780Z,1.88
2023-03-07T06:50:35.736Z,2.17
2023-03-07T06:53:03.098Z,1.80
2023-03-07T06:55:30.330Z,1.92
2023-03-07T06:57:57.507Z,2.05
2023-03-07T07:00:24.722Z,2.20
2023-03-07T07:02:53.374Z,1.88
2023-03-07T07:05:20.650Z,2.00
2023-03-07T07:07:47.869Z,1.70
2023-03-07T07:10:15.067Z,1.70
2023-03-07T07:12:42.289Z,1.60
2023-03-07T07:15:10.355Z,1.70
2023-03-07T07:17:38.832Z,1.70
2023-03-07T07:20:11.072Z,1.83
2023-03-07T07:22:38.263Z,1.50
2023-03-07T07:25:05.809Z,1.75
2023-03-07T07:27:33.006Z,1.50
2023-03-07T07:30:00.196Z,1.60
2023-03-07T07:32:27.563Z,1.25
2023-03-07T07:34:54.804Z,1.42
2023-03-07T07:37:23.858Z,1.30
2023-03-07T07:39:51.191Z,1.25
2023-03-07T07:42:18.419Z,1.40
2023-03-07T07:44:46.867Z,1.23
2023-03-07T07:47:14.097Z,1.05
2023-03-07T07:49:41.300Z,1.10
2023-03-07T07:52:08.681Z,1.25
2023-03-07T07:54:37.198Z,1.15
2023-03-07T07:57:04.589Z,1.10
2023-03-07T07:59:34.151Z,1.15
2023-03-07T08:02:01.552Z,0.73
2023-03-07T08:04:28.826Z,1.10
2023-03-07T08:06:56.022Z,1.00
2023-03-07T08:09:23.230Z,1.10
2023-03-07T08:11:51.768Z,1.10
2023-03-07T08:14:18.957Z,1.05
2023-03-07T08:16:46.146Z,1.10
2023-03-07T08:19:13.336Z,1.13
2023-03-07T08:21:40.606Z,1.10
2023-03-07T08:24:07.898Z,1.40
2023-03-07T08:26:35.098Z,1.30
2023-03-07T08:29:03.623Z,1.30
2023-03-07T08:31:30.909Z,1.02
2023-03-07T08:33:58.259Z,0.90
2023-03-07T08:36:25.473Z,1.08
2023-03-07T08:38:53.295Z,0.98
2023-03-07T08:41:20.639Z,1.00
2023-03-07T08:43:47.883Z,1.00
2023-03-07T08:46:16.456Z,1.23
2023-03-07T08:48:43.715Z,1.20
2023-03-07T08:51:11.288Z,1.00
2023-03-07T08:53:38.669Z,0.90
2023-03-07T08:56:08.925Z,0.98
2023-03-07T08:58:36.145Z,1.10
2023-03-07T09:01:03.538Z,0.90
2023-03-07T09:03:32.051Z,0.95
2023-03-07T09:05:59.251Z,1.00
2023-03-07T09:08:26.451Z,1.00
2023-03-07T09:10:53.682Z,0.73
2023-03-07T09:13:20.881Z,1.05
2023-03-07T09:15:48.096Z,0.90
2023-03-07T09:18:15.292Z,1.10
2023-03-07T09:20:44.398Z,0.80
2023-03-07T09:23:11.641Z,0.98
2023-03-07T09:25:39.747Z,1.10
2023-03-07T09:28:07.057Z,0.90
2023-03-07T09:30:34.255Z,0.98
2023-03-07T09:33:01.450Z,1.10
2023-03-07T09:35:28.634Z,1.05
2023-03-07T09:37:57.187Z,0.98
2023-03-07T09:40:25.014Z,0.95
2023-03-07T09:42:55.615Z,0.90
2023-03-07T09:45:25.010Z,1.00
2023-03-07T09:47:59.054Z,0.90
2023-03-07T09:50:28.161Z,1.10
2023-03-07T09:52:57.494Z,0.75
2023-03-07T09:55:24.679Z,0.70
2023-03-07T09:57:52.163Z,1.00
2023-03-07T10:00:20.611Z,0.90
2023-03-07T10:02:48.524Z,1.15
2023-03-07T10:05:19.627Z,0.95
2023-03-07T10:07:46.840Z,0.93
2023-03-07T10:10:21.321Z,0.90
2023-03-07T10:12:55.257Z,0.90
2023-03-07T10:15:28.210Z,1.20
2023-03-07T10:18:04.707Z,1.23
2023-03-07T10:20:35.011Z,3.25
2023-03-07T10:23:19.873Z,1.90
2023-03-07T10:25:50.098Z,1.58
2023-03-07T10:28:17.810Z,1.27
2023-03-07T10:30:45.000Z,1.52
2023-03-07T10:33:15.287Z,1.30
2023-03-07T10:35:42.857Z,1.30
2023-03-07T10:38:15.932Z,1.20
2023-03-07T10:40:44.592Z,1.20
2023-03-07T10:43:13.122Z,1.30
2023-03-07T10:45:40.385Z,1.02
2023-03-07T10:48:07.912Z,1.20
2023-03-07T10:50:37.455Z,1.00
2023-03-07T10:53:05.115Z,1.05
2023-03-07T10:55:33.173Z,0.98
2023-03-07T10:58:13.949Z,1.02
2023-03-07T11:00:41.128Z,1.10
2023-03-07T11:03:20.646Z,1.00
2023-03-07T11:05:48.242Z,1.02
2023-03-07T11:08:21.126Z,1.08
2023-03-07T11:10:48.336Z,0.80
2023-03-07T11:13:17.457Z,0.90
2023-03-07T11:15:45.324Z,0.90
2023-03-07T11:18:25.370Z,0.80
2023-03-07T11:20:52.584Z,1.00
2023-03-07T11:23:23.228Z,1.10
2023-03-07T11:25:50.519Z,0.90
2023-03-07T11:28:26.934Z,0.70
2023-03-07T11:30:54.230Z,0.80
2023-03-07T11:33:22.760Z,0.80
2023-03-07T11:35:53.161Z,0.85
2023-03-07T11:38:22.138Z,0.82
2023-03-07T11:40:50.512Z,0.80
2023-03-07T11:43:19.322Z,0.80
2023-03-07T11:45:50.899Z,0.70
2023-03-07T11:48:25.028Z,0.90
2023-03-07T11:50:54.471Z,0.90
2023-03-07T11:53:35.086Z,0.80
2023-03-07T11:56:07.128Z,0.80
2023-03-07T11:58:37.258Z,0.63
2023-03-07T12:03:50.419Z,0.70
2023-03-07T12:06:21.412Z,0.80
2023-03-07T12:08:52.106Z,0.80
2023-03-07T12:11:22.761Z,0.90
2023-03-07T12:13:54.552Z,1.00
2023-03-07T12:16:24.036Z,1.10
2023-03-07T12:19:01.061Z,1.35
2023-03-07T12:21:43.175Z,1.35
2023-03-07T12:24:14.206Z,1.30
2023-03-07T12:26:43.749Z,1.77
2023-03-07T12:29:11.484Z,1.77
2023-03-07T12:31:38.873Z,1.60
2023-03-07T12:34:06.819Z,2.00
2023-03-07T12:36:35.154Z,2.00
2023-03-07T12:39:04.163Z,1.83
2023-03-07T12:41:37.038Z,1.85
2023-03-07T12:44:04.864Z,1.88
2023-03-07T12:46:33.863Z,1.90
2023-03-07T12:49:01.525Z,1.75
2023-03-07T12:51:28.877Z,1.77
2023-03-07T12:53:56.618Z,1.60
2023-03-07T12:56:25.872Z,1.60
2023-03-07T12:58:55.273Z,1.60
2023-03-07T13:01:24.174Z,1.30
2023-03-07T13:03:52.460Z,1.45
2023-03-07T13:06:19.995Z,2.10
2023-03-07T13:08:47.702Z,1.80
2023-03-07T13:11:18.572Z,1.63
2023-03-07T13:13:55.263Z,1.83
2023-03-07T13:16:32.549Z,1.58
2023-03-07T13:19:14.730Z,2.10
2023-03-07T13:21:41.909Z,2.22
2023-03-07T13:24:28.769Z,2.08
2023-03-07T13:26:55.980Z,2.63
2023-03-07T13:29:38.113Z,2.55
2023-03-07T13:32:10.450Z,2.30
2023-03-07T13:34:55.845Z,2.22
2023-03-07T13:37:43.772Z,2.35
2023-03-07T13:40:21.995Z,2.53
2023-03-07T13:42:49.193Z,2.28
2023-03-07T13:45:35.016Z,2.40
2023-03-07T13:48:04.482Z,2.53
2023-03-07T13:50:38.847Z,2.08
2023-03-07T13:53:09.056Z,2.22
2023-03-07T13:58:06.192Z,2.45
2023-03-07T14:00:38.640Z,2.15
2023-03-07T14:03:12.276Z,2.20
2023-03-07T14:05:39.569Z,1.88
2023-03-07T14:08:06.942Z,1.70
2023-03-07T14:10:34.981Z,2.38
2023-03-07T14:13:12.850Z,1.88
2023-03-07T14:15:42.584Z,2.08
2023-03-07T14:18:15.484Z,2.00
2023-03-07T14:20:47.315Z,1.83
2023-03-07T14:23:16.177Z,1.88
2023-03-07T14:25:43.976Z,1.80
2023-03-07T14:28:19.562Z,1.80
2023-03-07T14:30:53.256Z,1.60
2023-03-07T14:33:21.816Z,1.88
2023-03-07T14:35:49.048Z,1.73
2023-03-07T14:38:18.140Z,1.60
2023-03-07T14:40:49.246Z,1.58
2023-03-07T14:43:20.970Z,1.80
2023-03-07T14:45:49.664Z,1.67
2023-03-07T14:48:26.277Z,1.58
2023-03-07T14:50:53.479Z,1.45
2023-03-07T14:53:21.476Z,1.70
2023-03-07T14:55:49.554Z,1.55
2023-03-07T14:58:17.258Z,1.70
2023-03-07T15:00:44.777Z,1.60
2023-03-07T15:03:12.400Z,1.55
2023-03-07T15:05:47.358Z,1.33
2023-03-07T15:08:18.071Z,1.70
2023-03-07T15:10:45.917Z,1.52
2023-03-07T15:13:15.434Z,1.60
2023-03-07T15:15:43.178Z,1.70
2023-03-07T15:20:31.563Z,1.52
2023-03-07T15:23:04.730Z,1.67
2023-03-07T15:25:33.036Z,1.70
2023-03-07T15:28:00.782Z,1.70
2023-03-07T15:30:28.435Z,1.70
2023-03-07T15:33:04.041Z,1.50
2023-03-07T15:35:31.330Z,1.60
2023-03-07T15:37:59.757Z,1.80
2023-03-07T15:40:29.473Z,1.90
2023-03-07T15:42:57.095Z,1.67
2023-03-07T15:45:27.719Z,1.45
2023-03-07T15:47:54.927Z,1.80
2023-03-07T15:50:23.316Z,1.55
2023-03-07T15:52:51.287Z,1.77
2023-03-07T15:55:19.037Z,1.65
2023-03-07T15:57:50.381Z,1.60
2023-03-07T16:00:18.006Z,2.00
2023-03-07T16:02:45.982Z,2.13
2023-03-07T16:05:29.113Z,1.80
2023-03-07T16:07:56.955Z,1.90
2023-03-07T16:10:25.329Z,1.90
2023-03-07T16:12:53.868Z,1.95
2023-03-07T16:15:21.486Z,1.75
2023-03-07T16:17:52.945Z,1.70
2023-03-07T16:20:20.565Z,1.80
2023-03-07T16:22:47.928Z,1.98
2023-03-07T16:25:16.364Z,2.00
2023-03-07T16:27:44.656Z,1.70
2023-03-07T16:30:15.585Z,1.67
2023-03-07T16:32:42.975Z,1.50
2023-03-07T16:35:14.082Z,1.60
2023-03-07T16:37:41.269Z,1.50
2023-03-07T16:40:09.766Z,1.48
2023-03-07T16:42:37.922Z,1.92
2023-03-07T16:45:05.893Z,1.58
2023-03-07T16:47:34.408Z,1.70
2023-03-07T16:50:01.754Z,1.75
2023-03-07T16:52:28.965Z,1.92
2023-03-07T16:54:56.163Z,1.80
2023-03-07T16:57:23.335Z,1.88
2023-03-07T16:59:50.758Z,1.50
2023-03-07T17:02:18.335Z,1.77
2023-03-07T17:04:46.867Z,1.40
2023-03-07T17:07:15.739Z,2.00
2023-03-07T17:09:42.925Z,1.45
2023-03-07T17:12:10.151Z,1.80
2023-03-07T17:14:37.380Z,1.70
2023-03-07T17:17:04.585Z,1.60
2023-03-07T17:19:32.408Z,1.50
2023-03-07T17:22:01.254Z,1.67
2023-03-07T17:24:29.147Z,1.80
2023-03-07T17:26:56.515Z,1.23
2023-03-07T17:29:25.310Z,1.55
2023-03-07T17:31:52.497Z,1.77
2023-03-07T17:34:20.600Z,1.50
2023-03-07T17:36:47.789Z,1.30
2023-03-07T17:39:16.304Z,1.35
2023-03-07T17:41:43.471Z,1.40
2023-03-07T17:44:10.654Z,1.30
2023-03-07T17:46:38.174Z,1.40
2023-03-07T17:49:05.486Z,1.40
2023-03-07T17:51:32.690Z,1.20
2023-03-07T17:53:59.894Z,1.17
2023-03-07T17:56:28.470Z,1.25
2023-03-07T17:58:55.711Z,1.20
2023-03-07T18:01:22.931Z,1.20
2023-03-07T18:03:50.150Z,1.02
2023-03-07T18:06:17.943Z,1.20
2023-03-07T18:08:45.136Z,1.23
2023-03-07T18:11:12.649Z,1.40
2023-03-07T18:13:42.078Z,1.10
2023-03-07T18:16:09.498Z,1.27
2023-03-07T18:18:37.155Z,1.38
2023-03-07T18:21:05.756Z,1.40
2023-03-07T18:23:33.003Z,1.20
2023-03-07T18:26:00.383Z,1.27
2023-03-07T18:28:27.555Z,1.52
2023-03-07T18:30:59.971Z,1.38
2023-03-07T18:33:28.239Z,1.50
2023-03-07T18:35:55.598Z,1.33
2023-03-07T18:38:22.823Z,1.58
2023-03-07T18:40:50.024Z,1.85
2023-03-07T18:43:17.255Z,1.83
2023-03-07T18:45:44.668Z,2.00
2023-03-07T18:48:13.160Z,1.50
2023-03-07T18:50:40.413Z,1.50
2023-03-07T18:53:07.727Z,1.60
2023-03-07T18:55:37.862Z,1.92
2023-03-07T18:58:05.179Z,1.75
2023-03-07T19:00:32.599Z,1.90
2023-03-07T19:02:59.931Z,2.20
2023-03-07T19:05:28.431Z,2.13
2023-03-07T19:07:55.636Z,2.60
2023-03-07T19:10:22.834Z,2.20
2023-03-07T19:12:50.120Z,2.40
2023-03-07T19:15:17.454Z,2.30
2023-03-07T19:17:44.897Z,2.35
2023-03-07T19:20:12.818Z,2.20
2023-03-07T19:22:41.386Z,2.72
2023-03-07T19:25:09.718Z,3.47
2023-03-07T19:27:36.944Z,3.00
2023-03-07T19:30:05.256Z,2.70
2023-03-07T19:32:32.487Z,2.92
2023-03-07T19:34:59.684Z,2.42
2023-03-07T19:37:26.873Z,2.60
2023-03-07T19:39:55.478Z,2.88
2023-03-07T19:42:22.663Z,2.38
2023-03-07T19:44:49.877Z,2.80
2023-03-07T19:47:17.084Z,2.60
2023-03-07T19:49:44.331Z,2.47
2023-03-07T19:52:11.562Z,2.95
2023-03-07T19:54:39.913Z,2.63
2023-03-07T19:57:09.179Z,2.45
2023-03-07T19:59:36.366Z,2.70
2023-03-07T20:02:03.653Z,2.50
2023-03-07T20:04:30.842Z,2.70
2023-03-07T20:06:58.032Z,2.65
2023-03-07T20:09:25.240Z,2.45
2023-03-07T20:11:52.500Z,2.17
2023-03-07T20:14:21.153Z,2.50
2023-03-07T20:16:48.471Z,2.67
2023-03-07T20:19:15.696Z,2.20
2023-03-07T20:21:49.585Z,2.40
2023-03-07T20:24:16.829Z,2.28
2023-03-07T20:26:44.003Z,2.40
2023-03-07T20:29:11.384Z,2.50
2023-03-07T20:31:40.172Z,2.63
2023-03-07T20:34:07.393Z,2.30
2023-03-07T20:36:34.893Z,2.03
2023-03-07T20:39:02.509Z,2.17
2023-03-07T20:41:30.502Z,2.40
2023-03-07T20:43:58.055Z,2.30
2023-03-07T20:46:25.360Z,2.10
2023-03-07T20:48:55.515Z,2.30
2023-03-07T20:53:50.806Z,2.00
2023-03-07T20:56:18.075Z,1.90
2023-03-07T20:58:45.300Z,1.80
2023-03-07T21:01:12.582Z,1.77
2023-03-07T21:03:39.830Z,1.90
2023-03-07T21:06:08.474Z,1.77
2023-03-07T21:08:36.132Z,1.55
2023-03-07T21:11:03.833Z,1.95
2023-03-07T21:13:31.136Z,1.45
2023-03-07T21:15:58.817Z,1.60
2023-03-07T21:18:26.178Z,1.40
2023-03-07T21:20:53.477Z,1.65
2023-03-07T21:23:21.958Z,1.70
2023-03-07T21:25:49.209Z,1.40
2023-03-07T21:28:16.388Z,1.65
2023-03-07T21:30:43.620Z,1.35
2023-03-07T21:33:11.340Z,1.55
2023-03-07T21:35:38.803Z,1.50
2023-03-07T21:38:06.066Z,1.52
2023-03-07T21:40:34.621Z,1.45
2023-03-07T21:43:01.831Z,1.38
2023-03-07T21:45:29.063Z,1.58
2023-03-07T21:47:56.613Z,1.60
2023-03-07T21:50:24.159Z,1.40
2023-03-07T21:52:51.352Z,1.48
2023-03-07T21:55:19.022Z,1.48
2023-03-07T21:57:47.519Z,1.60
2023-03-07T22:00:17.007Z,1.50
2023-03-07T22:02:44.413Z,1.40
2023-03-07T22:05:11.658Z,1.60
2023-03-07T22:07:38.894Z,1.60
2023-03-07T22:10:07.076Z,1.52
2023-03-07T22:12:34.277Z,1.48
2023-03-07T22:15:02.809Z,1.55
2023-03-07T22:17:29.983Z,1.48
2023-03-07T22:19:57.148Z,1.45
2023-03-07T22:22:24.331Z,1.33
2023-03-07T22:24:51.545Z,1.35
2023-03-07T22:27:18.730Z,1.30
2023-03-07T22:29:45.915Z,1.48
2023-03-07T22:32:14.412Z,1.42
2023-03-07T22:34:41.638Z,1.50
2023-03-07T22:37:08.814Z,1.60
2023-03-07T22:39:36.090Z,1.63
2023-03-07T22:42:03.294Z,1.50
2023-03-07T22:44:30.476Z,1.70
2023-03-07T22:46:57.664Z,1.35
2023-03-07T22:49:26.784Z,1.60
2023-03-07T22:51:53.986Z,1.40
2023-03-07T22:54:21.348Z,1.75
2023-03-07T22:56:48.572Z,1.85
2023-03-07T22:59:15.742Z,1.50
2023-03-07T23:01:43.193Z,1.33
2023-03-07T23:04:10.471Z,1.55
2023-03-07T23:06:39.009Z,1.60
2023-03-07T23:09:06.438Z,1.60
2023-03-07T23:11:33.746Z,1.65
2023-03-07T23:14:00.985Z,1.60
2023-03-07T23:16:29.072Z,1.65
2023-03-07T23:18:56.602Z,1.42
2023-03-07T23:21:24.403Z,1.33
2023-03-07T23:23:54.384Z,1.58
2023-03-07T23:26:22.281Z,1.52
2023-03-07T23:28:49.534Z,1.60
2023-03-07T23:31:17.463Z,1.50
2023-03-07T23:33:44.842Z,1.45
2023-03-07T23:36:12.795Z,1.40
2023-03-07T23:38:40.126Z,1.58
2023-03-07T23:41:08.655Z,1.90
2023-03-07T23:43:35.854Z,1.35
2023-03-07T23:46:03.114Z,1.40
2023-03-07T23:48:30.327Z,1.50
2023-03-07T23:50:57.568Z,1.73
2023-03-07T23:53:24.755Z,1.55
2023-03-07T23:55:51.950Z,1.83
2023-03-07T23:58:20.454Z,1.38
